createdAt,value
2022-08-30T00:01:30.359Z,5.80
2022-08-30T00:03:58.407Z,6.55
2022-08-30T00:06:28.996Z,7.15
2022-08-30T00:08:56.401Z,7.28
2022-08-30T00:11:26.257Z,6.13
2022-08-30T00:13:55.226Z,6.90
2022-08-30T00:16:23.876Z,6.60
2022-08-30T00:18:51.245Z,6.35
2022-08-30T00:21:19.282Z,5.88
2022-08-30T00:23:46.099Z,6.10
2022-08-30T00:26:15.045Z,6.00
2022-08-30T00:28:44.426Z,5.75
2022-08-30T00:31:15.202Z,5.47
2022-08-30T00:33:42.675Z,5.13
2022-08-30T00:36:09.621Z,5.10
2022-08-30T00:38:36.415Z,5.43
2022-08-30T00:41:03.340Z,5.40
2022-08-30T00:43:34.231Z,5.60
2022-08-30T00:46:07.723Z,4.72
2022-08-30T00:48:38.899Z,4.85
2022-08-30T00:51:13.003Z,5.10
2022-08-30T00:53:47.057Z,4.93
2022-08-30T00:56:14.430Z,5.22
2022-08-30T00:58:47.021Z,5.32
2022-08-30T01:01:14.334Z,5.00
2022-08-30T01:03:44.797Z,5.10
2022-08-30T01:06:14.975Z,5.13
2022-08-30T01:08:42.800Z,5.40
2022-08-30T01:11:12.303Z,5.30
2022-08-30T01:13:40.720Z,5.45
2022-08-30T01:16:08.382Z,6.22
2022-08-30T01:18:37.151Z,5.13
2022-08-30T01:21:22.412Z,6.65
2022-08-30T01:23:51.708Z,6.28
2022-08-30T01:26:21.821Z,6.20
2022-08-30T01:28:53.310Z,6.68
2022-08-30T01:31:22.674Z,5.88
2022-08-30T01:33:52.477Z,6.18
2022-08-30T01:36:20.395Z,5.90
2022-08-30T01:38:56.872Z,5.43
2022-08-30T01:41:35.508Z,5.70
2022-08-30T01:44:10.662Z,5.85
2022-08-30T01:46:45.871Z,6.07
2022-08-30T01:49:23.134Z,6.22
2022-08-30T01:52:00.511Z,5.35
2022-08-30T01:54:36.618Z,5.70
2022-08-30T01:57:11.953Z,5.85
2022-08-30T01:59:40.506Z,5.70
2022-08-30T02:02:07.959Z,5.63
2022-08-30T02:04:37.329Z,5.72
2022-08-30T02:07:06.438Z,5.68
2022-08-30T02:09:33.507Z,5.50
2022-08-30T02:12:07.835Z,5.53
2022-08-30T02:14:39.460Z,5.65
2022-08-30T02:19:34.189Z,5.63
2022-08-30T02:22:03.468Z,5.25
2022-08-30T02:24:33.472Z,5.88
2022-08-30T02:27:00.467Z,5.97
2022-08-30T02:29:27.597Z,6.53
2022-08-30T02:31:54.544Z,6.43
2022-08-30T02:34:21.725Z,6.78
2022-08-30T02:36:53.408Z,6.55
2022-08-30T02:39:22.398Z,6.80
2022-08-30T02:41:51.393Z,7.00
2022-08-30T02:44:20.441Z,7.00
2022-08-30T02:46:48.169Z,8.05
2022-08-30T02:49:33.554Z,7.78
2022-08-30T02:52:02.112Z,7.82
2022-08-30T02:54:33.238Z,7.85
2022-08-30T02:57:04.800Z,8.48
2022-08-30T02:59:32.091Z,7.97
2022-08-30T03:02:01.106Z,8.13
2022-08-30T03:04:28.018Z,8.45
2022-08-30T03:06:57.033Z,8.30
2022-08-30T03:09:23.881Z,8.85
2022-08-30T03:11:53.075Z,9.75
2022-08-30T03:14:20.944Z,8.77
2022-08-30T03:16:47.732Z,9.07
2022-08-30T03:19:14.556Z,9.38
2022-08-30T03:21:41.352Z,9.43
2022-08-30T03:24:08.560Z,9.63
2022-08-30T03:26:37.807Z,9.48
2022-08-30T03:29:04.704Z,9.48
2022-08-30T03:31:31.595Z,10.02
2022-08-30T03:34:05.484Z,11.02
2022-08-30T03:36:33.261Z,10.68
2022-08-30T03:39:02.456Z,10.23
2022-08-30T03:41:29.198Z,10.75
2022-08-30T03:44:00.217Z,10.90
2022-08-30T03:46:28.746Z,10.82
2022-08-30T03:48:58.994Z,10.40
2022-08-30T03:51:26.326Z,11.30
2022-08-30T03:53:55.372Z,11.32
2022-08-30T03:56:22.131Z,11.35
2022-08-30T03:58:49.192Z,11.60
2022-08-30T04:01:16.074Z,11.27
2022-08-30T04:03:42.941Z,11.52
2022-08-30T04:06:09.834Z,11.77
2022-08-30T04:08:38.834Z,11.00
2022-08-30T04:11:09.748Z,11.35
2022-08-30T04:13:36.564Z,11.98
2022-08-30T04:16:03.765Z,11.25
2022-08-30T04:18:30.616Z,11.48
2022-08-30T04:20:57.412Z,11.90
2022-08-30T04:23:26.364Z,11.32
2022-08-30T04:25:53.191Z,12.60
2022-08-30T04:28:22.472Z,12.60
2022-08-30T04:30:49.406Z,11.90
2022-08-30T04:33:17.324Z,12.25
2022-08-30T04:35:46.773Z,12.70
2022-08-30T04:38:15.003Z,13.18
2022-08-30T04:40:43.637Z,12.70
2022-08-30T04:43:12.982Z,12.40
2022-08-30T04:45:41.212Z,12.73
2022-08-30T04:48:08.815Z,12.32
2022-08-30T04:50:35.570Z,12.77
2022-08-30T04:53:05.442Z,13.65
2022-08-30T04:55:32.620Z,13.23
2022-08-30T04:57:59.462Z,13.68
2022-08-30T05:00:29.697Z,13.43
2022-08-30T05:02:56.508Z,12.82
2022-08-30T05:05:45.650Z,13.48
2022-08-30T05:08:16.168Z,14.20
2022-08-30T05:10:47.441Z,13.27
2022-08-30T05:13:17.704Z,14.35
2022-08-30T05:15:45.025Z,13.60
2022-08-30T05:18:14.049Z,14.20
2022-08-30T05:20:41.811Z,13.88
2022-08-30T05:23:10.906Z,13.65
2022-08-30T05:25:40.036Z,14.00
2022-08-30T05:28:07.010Z,13.15
2022-08-30T05:30:36.756Z,13.60
2022-08-30T05:33:04.129Z,14.13
2022-08-30T05:35:31.097Z,13.23
2022-08-30T05:38:00.100Z,14.07
2022-08-30T05:40:26.983Z,13.65
2022-08-30T05:42:56.061Z,14.13
2022-08-30T05:45:23.121Z,13.38
2022-08-30T05:47:49.963Z,13.30
2022-08-30T05:50:19.001Z,13.90
2022-08-30T05:52:45.780Z,13.30
2022-08-30T05:55:13.463Z,13.10
2022-08-30T05:57:41.369Z,13.25
2022-08-30T06:00:18.228Z,13.77
2022-08-30T06:02:45.237Z,13.55
2022-08-30T06:05:14.267Z,14.15
2022-08-30T06:07:44.131Z,13.52
2022-08-30T06:10:12.442Z,13.13
2022-08-30T06:12:39.517Z,12.75
2022-08-30T06:15:10.201Z,12.57
2022-08-30T06:17:39.580Z,12.73
2022-08-30T06:20:06.988Z,12.30
2022-08-30T06:22:33.790Z,12.55
2022-08-30T06:25:00.835Z,11.50
2022-08-30T06:27:31.229Z,12.63
2022-08-30T06:29:58.226Z,11.90
2022-08-30T06:32:27.403Z,11.05
2022-08-30T06:34:54.277Z,11.35
2022-08-30T06:37:29.353Z,10.73
2022-08-30T06:39:57.818Z,10.93
2022-08-30T06:42:30.618Z,10.40
2022-08-30T06:45:02.060Z,10.25
2022-08-30T06:47:31.867Z,10.57
2022-08-30T06:49:59.332Z,10.02
2022-08-30T06:52:26.171Z,9.95
2022-08-30T06:54:58.953Z,10.05
2022-08-30T06:57:26.668Z,9.82
2022-08-30T06:59:57.579Z,9.80
2022-08-30T07:02:25.018Z,9.20
2022-08-30T07:04:52.312Z,8.40
2022-08-30T07:07:21.515Z,8.55
2022-08-30T07:09:50.463Z,8.10
2022-08-30T07:12:19.568Z,7.80
2022-08-30T07:14:46.745Z,7.50
2022-08-30T07:17:34.666Z,7.10
2022-08-30T07:20:02.621Z,6.75
2022-08-30T07:22:33.502Z,6.45
2022-08-30T07:25:03.080Z,6.65
2022-08-30T07:27:31.620Z,6.32
2022-08-30T07:30:01.068Z,6.20
2022-08-30T07:32:27.883Z,5.70
2022-08-30T07:34:55.835Z,5.80
2022-08-30T07:37:24.774Z,5.72
2022-08-30T07:39:51.768Z,6.50
2022-08-30T07:42:18.756Z,6.10
2022-08-30T07:44:47.797Z,5.28
2022-08-30T07:47:16.701Z,5.82
2022-08-30T07:49:46.062Z,5.40
2022-08-30T07:52:15.216Z,5.05
2022-08-30T07:54:43.034Z,5.07
2022-08-30T07:57:10.077Z,4.20
2022-08-30T07:59:36.935Z,4.20
2022-08-30T08:02:03.968Z,3.88
2022-08-30T08:04:35.581Z,3.63
2022-08-30T08:07:02.772Z,3.63
2022-08-30T08:09:29.766Z,2.90
2022-08-30T08:11:56.912Z,2.65
2022-08-30T08:14:23.963Z,3.00
2022-08-30T08:16:53.491Z,2.95
2022-08-30T08:19:20.876Z,2.35
2022-08-30T08:21:52.781Z,2.70
2022-08-30T08:24:27.544Z,2.45
2022-08-30T08:26:59.048Z,2.45
2022-08-30T08:31:57.211Z,2.70
2022-08-30T08:34:26.609Z,2.50
2022-08-30T08:36:55.856Z,2.20
2022-08-30T08:39:22.637Z,2.10
2022-08-30T08:42:11.366Z,2.08
2022-08-30T08:47:28.823Z,2.30
2022-08-30T08:50:01.324Z,2.25
2022-08-30T08:53:13.322Z,1.90
2022-08-30T08:55:50.640Z,2.00
2022-08-30T08:58:34.199Z,1.83
2022-08-30T09:01:03.819Z,2.45
2022-08-30T09:03:30.683Z,2.05
2022-08-30T09:05:59.760Z,2.10
2022-08-30T09:08:29.116Z,2.10
2022-08-30T09:11:02.579Z,2.05
2022-08-30T09:13:33.963Z,2.15
2022-08-30T09:16:01.333Z,1.80
2022-08-30T09:18:54.442Z,1.80
2022-08-30T09:21:28.924Z,1.80
2022-08-30T09:24:04.831Z,1.70
2022-08-30T09:26:35.478Z,1.80
2022-08-30T09:29:05.804Z,1.90
2022-08-30T09:31:46.027Z,2.20
2022-08-30T09:34:18.619Z,2.30
2022-08-30T09:36:51.439Z,1.85
2022-08-30T09:39:34.582Z,1.70
2022-08-30T09:42:14.430Z,1.98
2022-08-30T09:44:41.349Z,2.00
2022-08-30T09:47:24.258Z,2.42
2022-08-30T09:50:14.097Z,2.13
2022-08-30T09:53:02.844Z,1.88
2022-08-30T09:55:56.873Z,1.90
2022-08-30T09:58:34.307Z,1.98
2022-08-30T10:01:15.302Z,2.20
2022-08-30T10:03:48.714Z,2.00
2022-08-30T10:06:31.252Z,1.90
2022-08-30T10:09:12.922Z,1.98
2022-08-30T10:11:57.226Z,1.90
2022-08-30T10:14:51.428Z,1.80
2022-08-30T10:17:39.162Z,1.77
2022-08-30T10:20:33.900Z,1.80
2022-08-30T10:23:21.083Z,2.10
2022-08-30T10:25:55.114Z,1.60
2022-08-30T10:28:38.860Z,1.70
2022-08-30T10:31:10.994Z,2.05
2022-08-30T10:33:46.389Z,2.03
2022-08-30T10:36:15.381Z,1.90
2022-08-30T10:38:48.379Z,2.05
2022-08-30T10:41:27.684Z,1.80
2022-08-30T10:44:04.315Z,1.60
2022-08-30T10:46:56.699Z,1.90
2022-08-30T10:49:29.113Z,1.80
2022-08-30T10:52:20.501Z,1.85
2022-08-30T10:57:20.507Z,1.88
2022-08-30T11:00:29.144Z,1.92
2022-08-30T11:03:14.275Z,1.65
2022-08-30T11:06:06.158Z,1.95
2022-08-30T11:08:52.247Z,1.75
2022-08-30T11:11:27.933Z,1.80
2022-08-30T11:14:05.485Z,1.50
2022-08-30T11:16:46.709Z,1.80
2022-08-30T11:19:26.383Z,1.70
2022-08-30T11:22:30.087Z,1.60
2022-08-30T11:25:38.802Z,1.60
2022-08-30T11:28:06.383Z,1.67
2022-08-30T11:30:33.191Z,1.83
2022-08-30T11:33:02.060Z,1.88
2022-08-30T11:35:41.928Z,1.73
2022-08-30T11:38:19.442Z,1.60
2022-08-30T11:41:10.968Z,1.90
2022-08-30T11:43:40.520Z,1.85
2022-08-30T11:46:40.328Z,1.75
2022-08-30T11:49:15.735Z,1.52
2022-08-30T11:52:27.632Z,1.70
2022-08-30T11:55:03.716Z,1.98
2022-08-30T11:57:50.292Z,1.70
2022-08-30T12:00:35.771Z,1.80
2022-08-30T12:03:07.604Z,1.80
2022-08-30T12:05:44.370Z,1.88
2022-08-30T12:08:20.336Z,1.67
2022-08-30T12:10:59.982Z,1.65
2022-08-30T12:13:39.925Z,2.35
2022-08-30T12:16:11.639Z,1.95
2022-08-30T12:18:57.145Z,1.63
2022-08-30T12:21:28.748Z,1.70
2022-08-30T12:24:23.523Z,1.88
2022-08-30T12:26:52.329Z,1.95
2022-08-30T12:29:19.235Z,1.70
2022-08-30T12:32:17.498Z,1.80
2022-08-30T12:34:46.599Z,2.08
2022-08-30T12:37:37.715Z,2.17
2022-08-30T12:40:14.356Z,2.25
2022-08-30T12:42:51.414Z,2.28
2022-08-30T12:45:21.748Z,2.15
2022-08-30T12:47:58.272Z,2.60
2022-08-30T12:50:42.798Z,2.42
2022-08-30T12:53:14.153Z,2.05
2022-08-30T12:55:53.854Z,2.10
2022-08-30T12:58:40.920Z,2.15
2022-08-30T13:01:19.398Z,1.98
2022-08-30T13:04:13.338Z,2.00
2022-08-30T13:06:58.129Z,2.28
2022-08-30T13:09:41.052Z,2.67
2022-08-30T13:12:20.903Z,2.15
2022-08-30T13:14:49.551Z,2.15
2022-08-30T13:17:19.146Z,2.25
2022-08-30T13:20:19.521Z,2.50
2022-08-30T13:23:09.709Z,1.80
2022-08-30T13:25:38.297Z,2.00
2022-08-30T13:28:06.998Z,2.00
2022-08-30T13:30:34.272Z,2.20
2022-08-30T13:33:02.292Z,2.05
2022-08-30T13:35:31.295Z,2.20
2022-08-30T13:38:00.246Z,2.20
2022-08-30T13:40:27.884Z,2.05
2022-08-30T13:42:54.648Z,1.80
2022-08-30T13:48:11.367Z,2.00
2022-08-30T13:50:38.966Z,2.05
2022-08-30T13:53:05.830Z,2.45
2022-08-30T13:55:33.915Z,2.17
2022-08-30T13:58:00.678Z,2.13
2022-08-30T14:00:28.237Z,2.40
2022-08-30T14:02:57.517Z,2.30
2022-08-30T14:11:15.713Z,2.20
2022-08-30T14:16:31.665Z,2.20
2022-08-30T14:19:00.335Z,2.40
2022-08-30T14:21:27.198Z,1.98
2022-08-30T14:24:02.039Z,2.25
2022-08-30T14:26:36.282Z,2.05
2022-08-30T14:29:08.951Z,2.60
2022-08-30T14:31:37.105Z,2.17
2022-08-30T14:34:05.650Z,2.55
2022-08-30T14:36:36.614Z,2.17
2022-08-30T14:39:08.617Z,2.00
2022-08-30T14:41:43.421Z,2.28
2022-08-30T14:44:15.206Z,2.45
2022-08-30T14:46:43.104Z,2.35
2022-08-30T14:49:12.198Z,2.55
2022-08-30T14:51:40.240Z,2.45
2022-08-30T14:54:08.018Z,2.17
2022-08-30T14:56:34.873Z,2.10
2022-08-30T14:59:02.952Z,2.47
2022-08-30T15:01:30.603Z,2.30
2022-08-30T15:03:58.985Z,1.95
2022-08-30T15:06:29.494Z,2.30
2022-08-30T15:08:59.561Z,2.15
2022-08-30T15:11:29.688Z,2.35
2022-08-30T15:13:56.559Z,2.03
2022-08-30T15:16:29.334Z,2.25
2022-08-30T15:18:58.238Z,2.53
2022-08-30T15:21:37.645Z,2.38
2022-08-30T15:24:06.907Z,2.42
2022-08-30T15:26:33.880Z,1.95
2022-08-30T15:29:00.761Z,2.10
2022-08-30T15:31:29.118Z,2.45
2022-08-30T15:33:56.661Z,2.20
2022-08-30T15:36:23.989Z,2.20
2022-08-30T15:38:55.386Z,1.90
2022-08-30T15:41:23.071Z,2.30
2022-08-30T15:43:54.350Z,2.40
2022-08-30T15:46:30.041Z,1.70
2022-08-30T15:49:02.386Z,2.05
2022-08-30T15:51:30.887Z,2.22
2022-08-30T15:54:12.030Z,2.40
2022-08-30T15:56:38.918Z,2.17
2022-08-30T15:59:05.747Z,2.42
2022-08-30T16:01:36.928Z,2.25
2022-08-30T16:04:06.714Z,1.83
2022-08-30T16:06:37.365Z,2.00
2022-08-30T16:09:05.740Z,1.80
2022-08-30T16:11:34.174Z,1.77
2022-08-30T16:14:02.058Z,1.95
2022-08-30T16:16:31.142Z,2.00
2022-08-30T16:18:58.392Z,1.88
2022-08-30T16:21:27.805Z,1.98
2022-08-30T16:24:01.018Z,2.00
2022-08-30T16:26:31.445Z,2.10
2022-08-30T16:28:59.221Z,1.80
2022-08-30T16:31:28.740Z,1.98
2022-08-30T16:33:57.368Z,1.70
2022-08-30T16:36:29.097Z,1.67
2022-08-30T16:38:58.260Z,1.80
2022-08-30T16:41:25.436Z,2.08
2022-08-30T16:43:53.709Z,1.77
2022-08-30T16:46:27.359Z,1.80
2022-08-30T16:48:59.414Z,2.00
2022-08-30T16:51:32.237Z,1.95
2022-08-30T16:54:01.612Z,1.73
2022-08-30T16:56:32.920Z,1.70
2022-08-30T16:59:02.686Z,1.67
2022-08-30T17:01:34.638Z,1.58
2022-08-30T17:04:02.442Z,1.85
2022-08-30T17:06:29.326Z,1.77
2022-08-30T17:08:58.974Z,1.90
2022-08-30T17:11:26.621Z,2.00
2022-08-30T17:13:53.943Z,1.90
2022-08-30T17:16:27.542Z,2.00
2022-08-30T17:18:59.600Z,2.03
2022-08-30T17:21:30.975Z,1.80
2022-08-30T17:24:02.447Z,1.50
2022-08-30T17:26:34.751Z,1.67
2022-08-30T17:29:02.588Z,1.70
2022-08-30T17:33:00.180Z,1.73
2022-08-30T17:35:29.961Z,1.77
2022-08-30T17:37:57.223Z,1.65
2022-08-30T17:40:24.097Z,1.90
2022-08-30T17:42:53.568Z,1.80
2022-08-30T17:45:21.189Z,1.60
2022-08-30T17:47:50.709Z,1.95
2022-08-30T17:50:20.545Z,1.63
2022-08-30T17:52:50.186Z,1.80
2022-08-30T17:55:19.637Z,1.88
2022-08-30T17:57:46.373Z,2.00
2022-08-30T18:02:48.309Z,1.80
2022-08-30T18:05:15.959Z,1.80
2022-08-30T18:07:42.976Z,1.90
2022-08-30T18:10:10.272Z,1.60
2022-08-30T18:12:39.298Z,1.88
2022-08-30T18:15:12.483Z,1.50
2022-08-30T18:17:47.610Z,1.70
2022-08-30T18:20:15.430Z,1.60
2022-08-30T18:22:45.144Z,1.67
2022-08-30T18:25:12.142Z,1.52
2022-08-30T18:27:39.385Z,1.90
2022-08-30T18:30:11.531Z,1.50
2022-08-30T18:32:38.575Z,1.50
2022-08-30T18:35:06.359Z,1.85
2022-08-30T18:37:33.328Z,1.60
2022-08-30T18:40:02.933Z,1.95
2022-08-30T18:42:32.297Z,1.70
2022-08-30T18:44:59.366Z,1.80
2022-08-30T18:47:37.397Z,1.80
2022-08-30T18:50:05.925Z,2.17
2022-08-30T18:52:33.485Z,1.92
2022-08-30T18:55:02.713Z,1.90
2022-08-30T18:57:32.389Z,1.85
2022-08-30T18:59:59.704Z,2.20
2022-08-30T19:02:27.583Z,2.20
2022-08-30T19:04:55.405Z,2.17
2022-08-30T19:07:30.872Z,1.90
2022-08-30T19:10:01.726Z,2.28
2022-08-30T19:12:31.576Z,1.98
2022-08-30T19:15:00.875Z,1.92
2022-08-30T19:17:32.153Z,2.00
2022-08-30T19:20:01.803Z,2.33
2022-08-30T19:23:03.417Z,2.00
2022-08-30T19:25:20.832Z,2.25
2022-08-30T19:27:50.761Z,2.20
2022-08-30T19:30:23.114Z,2.13
2022-08-30T19:32:53.049Z,2.20
2022-08-30T19:35:20.429Z,2.55
2022-08-30T19:37:49.784Z,2.40
2022-08-30T19:40:19.076Z,2.35
2022-08-30T19:42:46.765Z,2.17
2022-08-30T19:45:17.777Z,2.67
2022-08-30T19:47:50.314Z,2.33
2022-08-30T19:50:20.376Z,2.08
2022-08-30T19:52:53.708Z,2.22
2022-08-30T19:55:28.173Z,2.30
2022-08-30T19:57:55.255Z,2.15
2022-08-30T20:00:23.491Z,2.30
2022-08-30T20:02:52.948Z,2.38
2022-08-30T20:05:23.943Z,2.50
2022-08-30T20:07:51.404Z,2.33
2022-08-30T20:10:25.841Z,2.40
2022-08-30T20:12:52.903Z,2.72
2022-08-30T20:15:21.992Z,2.58
2022-08-30T20:18:06.392Z,2.72
2022-08-30T20:20:38.829Z,2.60
2022-08-30T20:23:06.007Z,2.50
2022-08-30T20:25:33.295Z,2.85
2022-08-30T20:28:00.420Z,2.90
2022-08-30T20:30:29.792Z,2.80
2022-08-30T20:32:57.280Z,2.90
2022-08-30T20:35:24.610Z,3.35
2022-08-30T20:37:51.432Z,2.60
2022-08-30T20:40:20.634Z,3.10
2022-08-30T20:42:47.900Z,2.88
2022-08-30T20:45:16.929Z,3.00
2022-08-30T20:47:44.257Z,3.10
2022-08-30T20:50:14.200Z,3.10
2022-08-30T20:52:41.751Z,3.60
2022-08-30T20:55:10.441Z,3.30
2022-08-30T20:57:37.483Z,3.10
2022-08-30T21:00:13.793Z,3.22
2022-08-30T21:02:46.468Z,3.50
2022-08-30T21:05:18.259Z,3.58
2022-08-30T21:07:46.088Z,3.60
2022-08-30T21:10:13.892Z,3.55
2022-08-30T21:12:42.886Z,3.90
2022-08-30T21:15:34.173Z,3.50
2022-08-30T21:17:57.113Z,4.28
2022-08-30T21:20:23.883Z,3.90
2022-08-30T21:22:55.881Z,4.28
2022-08-30T21:25:24.928Z,4.20
2022-08-30T21:27:53.880Z,4.68
2022-08-30T21:30:20.834Z,4.55
2022-08-30T21:32:47.829Z,4.70
2022-08-30T21:35:33.154Z,4.50
2022-08-30T21:37:59.916Z,5.00
2022-08-30T21:40:27.287Z,4.75
2022-08-30T21:42:56.467Z,4.47
2022-08-30T21:45:23.427Z,5.55
2022-08-30T21:47:50.151Z,5.28
2022-08-30T21:50:16.965Z,4.93
2022-08-30T21:52:46.300Z,6.13
2022-08-30T21:55:15.702Z,5.30
2022-08-30T21:57:42.477Z,5.85
2022-08-30T22:00:10.297Z,5.47
2022-08-30T22:02:37.094Z,5.53
2022-08-30T22:05:06.299Z,5.55
2022-08-30T22:07:33.077Z,5.75
2022-08-30T22:09:59.818Z,6.28
2022-08-30T22:12:28.735Z,5.75
2022-08-30T22:14:58.556Z,6.30
2022-08-30T22:17:28.449Z,5.90
2022-08-30T22:19:55.301Z,5.78
2022-08-30T22:22:22.261Z,5.78
2022-08-30T22:24:52.144Z,5.75
2022-08-30T22:27:21.065Z,6.00
2022-08-30T22:29:50.751Z,5.20
2022-08-30T22:32:17.821Z,5.13
2022-08-30T22:34:45.779Z,5.35
2022-08-30T22:37:12.556Z,5.10
2022-08-30T22:39:41.861Z,5.07
2022-08-30T22:42:09.885Z,4.68
2022-08-30T22:44:36.929Z,4.60
2022-08-30T22:47:06.348Z,4.53
2022-08-30T22:49:33.109Z,4.35
2022-08-30T22:51:59.875Z,4.25
2022-08-30T22:54:26.717Z,4.18
2022-08-30T22:56:53.498Z,4.30
2022-08-30T22:59:30.345Z,4.85
2022-08-30T23:02:01.487Z,4.43
2022-08-30T23:04:28.592Z,4.60
2022-08-30T23:06:55.377Z,3.58
2022-08-30T23:09:22.843Z,3.60
2022-08-30T23:11:52.144Z,3.75
2022-08-30T23:14:19.023Z,3.22
2022-08-30T23:16:49.145Z,3.42
2022-08-30T23:19:16.895Z,3.13
2022-08-30T23:21:44.040Z,3.03
2022-08-30T23:24:29.405Z,3.20
2022-08-30T23:27:14.995Z,3.40
2022-08-30T23:30:00.375Z,3.22
2022-08-30T23:32:45.804Z,3.25
2022-08-30T23:35:32.165Z,3.33
2022-08-30T23:38:20.893Z,3.20
2022-08-30T23:41:08.920Z,3.30
2022-08-30T23:43:56.468Z,2.97
2022-08-30T23:46:41.952Z,2.78
2022-08-30T23:49:27.525Z,2.65
2022-08-30T23:52:13.017Z,2.75
2022-08-30T23:54:58.567Z,3.08
2022-08-30T23:57:44.948Z,2.67
